sensor_id;sensor_type;location;lat;lon;timestamp;P1;durP1;ratioP1;P2;durP2;ratioP2
28266;SDS011;15525;45.568;5.448;2023-03-14T00:01:52;1.70;;;1.20;;
28266;SDS011;15525;45.568;5.448;2023-03-14T00:04:17;2.10;;;0.90;;
28266;SDS011;15525;45.568;5.448;2023-03-14T00:06:43;2.17;;;1.27;;
28266;SDS011;15525;45.568;5.448;2023-03-14T00:09:08;2.63;;;1.00;;
28266;SDS011;15525;45.568;5.448;2023-03-14T00:11:34;2.42;;;1.02;;
28266;SDS011;15525;45.568;5.448;2023-03-14T00:13:59;2.17;;;0.82;;
28266;SDS011;15525;45.568;5.448;2023-03-14T00:16:25;1.05;;;0.80;;
28266;SDS011;15525;45.568;5.448;2023-03-14T00:18:51;1.95;;;0.90;;
28266;SDS011;15525;45.568;5.448;2023-03-14T00:21:16;1.45;;;0.93;;
28266;SDS011;15525;45.568;5.448;2023-03-14T00:23:42;1.35;;;0.98;;
28266;SDS011;15525;45.568;5.448;2023-03-14T00:26:09;1.88;;;0.95;;
28266;SDS011;15525;45.568;5.448;2023-03-14T00:28:39;0.95;;;0.80;;
28266;SDS011;15525;45.568;5.448;2023-03-14T00:31:06;1.60;;;0.90;;
28266;SDS011;15525;45.568;5.448;2023-03-14T00:33:33;2.17;;;1.02;;
28266;SDS011;15525;45.568;5.448;2023-03-14T00:36:00;2.00;;;0.90;;
28266;SDS011;15525;45.568;5.448;2023-03-14T00:38:31;1.85;;;1.02;;
28266;SDS011;15525;45.568;5.448;2023-03-14T00:40:57;2.78;;;1.02;;
28266;SDS011;15525;45.568;5.448;2023-03-14T00:43:23;3.65;;;1.30;;
28266;SDS011;15525;45.568;5.448;2023-03-14T00:45:49;2.20;;;1.00;;
28266;SDS011;15525;45.568;5.448;2023-03-14T00:48:16;1.50;;;0.98;;
28266;SDS011;15525;45.568;5.448;2023-03-14T00:50:42;1.98;;;0.85;;
28266;SDS011;15525;45.568;5.448;2023-03-14T00:53:07;1.77;;;0.93;;
28266;SDS011;15525;45.568;5.448;2023-03-14T00:55:36;2.10;;;1.00;;
28266;SDS011;15525;45.568;5.448;2023-03-14T00:58:02;1.42;;;1.00;;
28266;SDS011;15525;45.568;5.448;2023-03-14T01:00:28;1.20;;;0.90;;
28266;SDS011;15525;45.568;5.448;2023-03-14T01:02:53;2.28;;;1.10;;
28266;SDS011;15525;45.568;5.448;2023-03-14T01:05:19;1.50;;;0.98;;
28266;SDS011;15525;45.568;5.448;2023-03-14T01:07:44;2.08;;;1.00;;
28266;SDS011;15525;45.568;5.448;2023-03-14T01:10:10;1.33;;;0.90;;
28266;SDS011;15525;45.568;5.448;2023-03-14T01:12:35;2.05;;;1.00;;
28266;SDS011;15525;45.568;5.448;2023-03-14T01:15:01;1.00;;;0.90;;
28266;SDS011;15525;45.568;5.448;2023-03-14T01:17:26;2.00;;;0.85;;
28266;SDS011;15525;45.568;5.448;2023-03-14T01:19:52;2.05;;;0.90;;
28266;SDS011;15525;45.568;5.448;2023-03-14T01:22:17;1.95;;;0.90;;
28266;SDS011;15525;45.568;5.448;2023-03-14T01:24:43;1.33;;;0.60;;
28266;SDS011;15525;45.568;5.448;2023-03-14T01:27:08;1.95;;;0.95;;
28266;SDS011;15525;45.568;5.448;2023-03-14T01:29:33;2.78;;;0.70;;
28266;SDS011;15525;45.568;5.448;2023-03-14T01:31:59;0.82;;;0.80;;
28266;SDS011;15525;45.568;5.448;2023-03-14T01:34:24;1.50;;;0.60;;
28266;SDS011;15525;45.568;5.448;2023-03-14T01:36:50;0.73;;;0.60;;
28266;SDS011;15525;45.568;5.448;2023-03-14T01:39:15;1.13;;;0.80;;
28266;SDS011;15525;45.568;5.448;2023-03-14T01:41:41;1.40;;;0.60;;
28266;SDS011;15525;45.568;5.448;2023-03-14T01:44:10;1.13;;;0.82;;
28266;SDS011;15525;45.568;5.448;2023-03-14T01:46:37;2.22;;;0.80;;
28266;SDS011;15525;45.568;5.448;2023-03-14T01:49:09;0.73;;;0.60;;
28266;SDS011;15525;45.568;5.448;2023-03-14T01:51:44;1.55;;;0.70;;
28266;SDS011;15525;45.568;5.448;2023-03-14T01:59:38;1.23;;;0.80;;
28266;SDS011;15525;45.568;5.448;2023-03-14T02:02:07;1.50;;;0.68;;
28266;SDS011;15525;45.568;5.448;2023-03-14T02:04:37;0.80;;;0.60;;
28266;SDS011;15525;45.568;5.448;2023-03-14T02:07:06;0.80;;;0.70;;
28266;SDS011;15525;45.568;5.448;2023-03-14T02:09:38;0.65;;;0.60;;
28266;SDS011;15525;45.568;5.448;2023-03-14T02:12:04;1.98;;;0.70;;
28266;SDS011;15525;45.568;5.448;2023-03-14T02:14:32;0.50;;;0.50;;
28266;SDS011;15525;45.568;5.448;2023-03-14T02:17:00;0.60;;;0.50;;
28266;SDS011;15525;45.568;5.448;2023-03-14T02:19:32;1.17;;;0.60;;
28266;SDS011;15525;45.568;5.448;2023-03-14T02:22:20;1.20;;;0.52;;
28266;SDS011;15525;45.568;5.448;2023-03-14T02:24:56;0.70;;;0.50;;
28266;SDS011;15525;45.568;5.448;2023-03-14T02:27:38;1.50;;;0.50;;
28266;SDS011;15525;45.568;5.448;2023-03-14T02:32:51;0.73;;;0.60;;
28266;SDS011;15525;45.568;5.448;2023-03-14T02:36:23;0.65;;;0.55;;
28266;SDS011;15525;45.568;5.448;2023-03-14T02:38:33;1.13;;;0.50;;
28266;SDS011;15525;45.568;5.448;2023-03-14T02:41:03;1.13;;;0.60;;
28266;SDS011;15525;45.568;5.448;2023-03-14T02:43:29;0.88;;;0.60;;
28266;SDS011;15525;45.568;5.448;2023-03-14T02:45:55;0.70;;;0.70;;
28266;SDS011;15525;45.568;5.448;2023-03-14T02:50:50;1.40;;;0.43;;
28266;SDS011;15525;45.568;5.448;2023-03-14T02:53:20;1.17;;;0.50;;
28266;SDS011;15525;45.568;5.448;2023-03-14T02:55:48;2.78;;;0.70;;
28266;SDS011;15525;45.568;5.448;2023-03-14T02:58:14;1.38;;;0.90;;
28266;SDS011;15525;45.568;5.448;2023-03-14T03:00:40;0.73;;;0.40;;
28266;SDS011;15525;45.568;5.448;2023-03-14T03:03:05;1.02;;;0.52;;
28266;SDS011;15525;45.568;5.448;2023-03-14T03:05:31;2.35;;;0.63;;
28266;SDS011;15525;45.568;5.448;2023-03-14T03:07:57;1.48;;;0.43;;
28266;SDS011;15525;45.568;5.448;2023-03-14T03:10:23;2.70;;;0.80;;
28266;SDS011;15525;45.568;5.448;2023-03-14T03:12:49;1.98;;;0.50;;
28266;SDS011;15525;45.568;5.448;2023-03-14T03:15:14;3.33;;;0.80;;
28266;SDS011;15525;45.568;5.448;2023-03-14T03:17:40;2.45;;;0.70;;
28266;SDS011;15525;45.568;5.448;2023-03-14T03:20:06;2.30;;;0.70;;
28266;SDS011;15525;45.568;5.448;2023-03-14T03:22:34;4.03;;;0.75;;
28266;SDS011;15525;45.568;5.448;2023-03-14T03:25:01;1.58;;;0.90;;
28266;SDS011;15525;45.568;5.448;2023-03-14T03:27:26;1.75;;;0.80;;
28266;SDS011;15525;45.568;5.448;2023-03-14T03:29:52;1.17;;;0.75;;
28266;SDS011;15525;45.568;5.448;2023-03-14T03:32:17;1.38;;;0.68;;
28266;SDS011;15525;45.568;5.448;2023-03-14T03:34:42;2.75;;;0.90;;
28266;SDS011;15525;45.568;5.448;2023-03-14T03:37:08;3.88;;;0.88;;
28266;SDS011;15525;45.568;5.448;2023-03-14T03:39:33;1.42;;;0.82;;
28266;SDS011;15525;45.568;5.448;2023-03-14T03:41:59;3.45;;;0.80;;
28266;SDS011;15525;45.568;5.448;2023-03-14T03:44:24;2.05;;;0.70;;
28266;SDS011;15525;45.568;5.448;2023-03-14T03:46:49;1.25;;;0.75;;
28266;SDS011;15525;45.568;5.448;2023-03-14T03:49:15;1.33;;;0.70;;
28266;SDS011;15525;45.568;5.448;2023-03-14T03:51:40;2.72;;;0.98;;
28266;SDS011;15525;45.568;5.448;2023-03-14T03:54:06;1.33;;;0.47;;
28266;SDS011;15525;45.568;5.448;2023-03-14T03:56:31;4.43;;;0.85;;
28266;SDS011;15525;45.568;5.448;2023-03-14T03:58:57;1.35;;;0.75;;
28266;SDS011;15525;45.568;5.448;2023-03-14T04:01:22;1.65;;;0.50;;
28266;SDS011;15525;45.568;5.448;2023-03-14T04:03:48;4.32;;;0.47;;
28266;SDS011;15525;45.568;5.448;2023-03-14T04:06:13;1.40;;;0.70;;
28266;SDS011;15525;45.568;5.448;2023-03-14T04:08:39;0.95;;;0.63;;
28266;SDS011;15525;45.568;5.448;2023-03-14T04:11:08;2.55;;;0.70;;
28266;SDS011;15525;45.568;5.448;2023-03-14T04:13:34;3.25;;;0.60;;
28266;SDS011;15525;45.568;5.448;2023-03-14T04:15:59;2.95;;;0.70;;
28266;SDS011;15525;45.568;5.448;2023-03-14T04:18:25;2.28;;;0.50;;
28266;SDS011;15525;45.568;5.448;2023-03-14T04:20:51;2.10;;;0.70;;
28266;SDS011;15525;45.568;5.448;2023-03-14T04:23:18;1.30;;;0.50;;
28266;SDS011;15525;45.568;5.448;2023-03-14T04:25:44;1.23;;;0.65;;
28266;SDS011;15525;45.568;5.448;2023-03-14T04:28:09;0.95;;;0.60;;
28266;SDS011;15525;45.568;5.448;2023-03-14T04:30:35;0.40;;;0.40;;
28266;SDS011;15525;45.568;5.448;2023-03-14T04:33:00;1.95;;;0.60;;
28266;SDS011;15525;45.568;5.448;2023-03-14T04:35:25;2.22;;;0.65;;
28266;SDS011;15525;45.568;5.448;2023-03-14T04:37:51;1.25;;;0.60;;
28266;SDS011;15525;45.568;5.448;2023-03-14T04:40:17;0.98;;;0.38;;
28266;SDS011;15525;45.568;5.448;2023-03-14T04:42:43;3.08;;;0.60;;
28266;SDS011;15525;45.568;5.448;2023-03-14T04:45:09;2.30;;;0.60;;
28266;SDS011;15525;45.568;5.448;2023-03-14T04:47:34;0.75;;;0.50;;
28266;SDS011;15525;45.568;5.448;2023-03-14T04:50:00;2.15;;;0.80;;
28266;SDS011;15525;45.568;5.448;2023-03-14T04:52:26;1.25;;;0.70;;
28266;SDS011;15525;45.568;5.448;2023-03-14T04:54:52;3.75;;;0.80;;
28266;SDS011;15525;45.568;5.448;2023-03-14T04:57:17;1.83;;;0.52;;
28266;SDS011;15525;45.568;5.448;2023-03-14T04:59:43;1.20;;;0.68;;
28266;SDS011;15525;45.568;5.448;2023-03-14T05:02:08;1.85;;;0.70;;
28266;SDS011;15525;45.568;5.448;2023-03-14T05:04:34;2.20;;;0.73;;
28266;SDS011;15525;45.568;5.448;2023-03-14T05:06:59;1.90;;;0.65;;
28266;SDS011;15525;45.568;5.448;2023-03-14T05:09:25;2.80;;;0.70;;
28266;SDS011;15525;45.568;5.448;2023-03-14T05:11:51;0.73;;;0.68;;
28266;SDS011;15525;45.568;5.448;2023-03-14T05:14:16;1.52;;;0.63;;
28266;SDS011;15525;45.568;5.448;2023-03-14T05:16:42;1.88;;;0.60;;
28266;SDS011;15525;45.568;5.448;2023-03-14T05:19:07;0.60;;;0.57;;
28266;SDS011;15525;45.568;5.448;2023-03-14T05:21:33;2.25;;;0.60;;
28266;SDS011;15525;45.568;5.448;2023-03-14T05:23:58;3.83;;;0.98;;
28266;SDS011;15525;45.568;5.448;2023-03-14T05:26:23;0.65;;;0.65;;
28266;SDS011;15525;45.568;5.448;2023-03-14T05:28:49;2.17;;;0.70;;
28266;SDS011;15525;45.568;5.448;2023-03-14T05:31:14;2.90;;;0.93;;
28266;SDS011;15525;45.568;5.448;2023-03-14T05:33:40;1.25;;;0.77;;
28266;SDS011;15525;45.568;5.448;2023-03-14T05:36:06;2.10;;;0.70;;
28266;SDS011;15525;45.568;5.448;2023-03-14T05:38:32;1.95;;;0.70;;
28266;SDS011;15525;45.568;5.448;2023-03-14T05:40:57;2.78;;;0.82;;
28266;SDS011;15525;45.568;5.448;2023-03-14T05:43:23;1.67;;;0.82;;
28266;SDS011;15525;45.568;5.448;2023-03-14T05:45:48;1.95;;;0.80;;
28266;SDS011;15525;45.568;5.448;2023-03-14T05:48:13;3.47;;;1.17;;
28266;SDS011;15525;45.568;5.448;2023-03-14T05:50:39;2.25;;;0.80;;
28266;SDS011;15525;45.568;5.448;2023-03-14T05:53:05;1.55;;;0.65;;
28266;SDS011;15525;45.568;5.448;2023-03-14T05:55:30;3.25;;;0.80;;
28266;SDS011;15525;45.568;5.448;2023-03-14T05:57:56;2.83;;;0.80;;
28266;SDS011;15525;45.568;5.448;2023-03-14T06:00:21;2.55;;;0.80;;
28266;SDS011;15525;45.568;5.448;2023-03-14T06:02:47;2.28;;;0.70;;
28266;SDS011;15525;45.568;5.448;2023-03-14T06:05:13;2.33;;;0.70;;
28266;SDS011;15525;45.568;5.448;2023-03-14T06:07:38;2.85;;;0.70;;
28266;SDS011;15525;45.568;5.448;2023-03-14T06:10:04;3.30;;;0.88;;
28266;SDS011;15525;45.568;5.448;2023-03-14T06:12:29;2.85;;;0.80;;
28266;SDS011;15525;45.568;5.448;2023-03-14T06:14:55;5.68;;;0.75;;
28266;SDS011;15525;45.568;5.448;2023-03-14T06:17:20;2.70;;;0.88;;
28266;SDS011;15525;45.568;5.448;2023-03-14T06:19:46;1.23;;;0.80;;
28266;SDS011;15525;45.568;5.448;2023-03-14T06:22:11;1.40;;;0.65;;
28266;SDS011;15525;45.568;5.448;2023-03-14T06:24:37;2.63;;;0.65;;
28266;SDS011;15525;45.568;5.448;2023-03-14T06:27:02;2.53;;;0.85;;
28266;SDS011;15525;45.568;5.448;2023-03-14T06:29:28;1.60;;;0.65;;
28266;SDS011;15525;45.568;5.448;2023-03-14T06:31:54;1.33;;;0.70;;
28266;SDS011;15525;45.568;5.448;2023-03-14T06:34:20;2.83;;;0.77;;
28266;SDS011;15525;45.568;5.448;2023-03-14T06:36:45;2.17;;;0.77;;
28266;SDS011;15525;45.568;5.448;2023-03-14T06:39:11;2.95;;;0.80;;
28266;SDS011;15525;45.568;5.448;2023-03-14T06:41:36;1.83;;;0.80;;
28266;SDS011;15525;45.568;5.448;2023-03-14T06:44:02;1.95;;;0.80;;
28266;SDS011;15525;45.568;5.448;2023-03-14T06:46:27;2.92;;;0.88;;
28266;SDS011;15525;45.568;5.448;2023-03-14T06:48:53;3.28;;;0.70;;
28266;SDS011;15525;45.568;5.448;2023-03-14T06:51:19;1.30;;;0.85;;
28266;SDS011;15525;45.568;5.448;2023-03-14T06:53:44;3.47;;;1.02;;
28266;SDS011;15525;45.568;5.448;2023-03-14T06:56:09;2.38;;;0.93;;
28266;SDS011;15525;45.568;5.448;2023-03-14T06:58:35;4.75;;;0.80;;
28266;SDS011;15525;45.568;5.448;2023-03-14T07:01:00;1.92;;;0.82;;
28266;SDS011;15525;45.568;5.448;2023-03-14T07:03:26;2.67;;;0.90;;
28266;SDS011;15525;45.568;5.448;2023-03-14T07:05:52;3.80;;;1.05;;
28266;SDS011;15525;45.568;5.448;2023-03-14T07:08:17;2.95;;;0.82;;
28266;SDS011;15525;45.568;5.448;2023-03-14T07:10:43;4.18;;;0.90;;
28266;SDS011;15525;45.568;5.448;2023-03-14T07:13:08;2.75;;;0.82;;
28266;SDS011;15525;45.568;5.448;2023-03-14T07:15:34;2.60;;;1.00;;
28266;SDS011;15525;45.568;5.448;2023-03-14T07:17:59;2.55;;;0.90;;
28266;SDS011;15525;45.568;5.448;2023-03-14T07:20:25;2.10;;;0.90;;
28266;SDS011;15525;45.568;5.448;2023-03-14T07:22:51;2.72;;;0.98;;
28266;SDS011;15525;45.568;5.448;2023-03-14T07:25:17;3.28;;;1.17;;
28266;SDS011;15525;45.568;5.448;2023-03-14T07:27:43;3.45;;;0.90;;
28266;SDS011;15525;45.568;5.448;2023-03-14T07:30:10;2.83;;;0.90;;
28266;SDS011;15525;45.568;5.448;2023-03-14T07:32:36;5.50;;;1.15;;
28266;SDS011;15525;45.568;5.448;2023-03-14T07:35:02;2.58;;;1.17;;
28266;SDS011;15525;45.568;5.448;2023-03-14T07:37:27;3.08;;;1.08;;
28266;SDS011;15525;45.568;5.448;2023-03-14T07:39:53;2.75;;;0.85;;
28266;SDS011;15525;45.568;5.448;2023-03-14T07:42:18;3.17;;;1.15;;
28266;SDS011;15525;45.568;5.448;2023-03-14T07:44:43;5.90;;;1.52;;
28266;SDS011;15525;45.568;5.448;2023-03-14T07:47:09;6.43;;;1.42;;
28266;SDS011;15525;45.568;5.448;2023-03-14T07:49:34;3.50;;;1.15;;
28266;SDS011;15525;45.568;5.448;2023-03-14T07:52:00;3.22;;;1.10;;
28266;SDS011;15525;45.568;5.448;2023-03-14T07:54:25;4.25;;;1.30;;
28266;SDS011;15525;45.568;5.448;2023-03-14T07:56:51;3.75;;;1.40;;
28266;SDS011;15525;45.568;5.448;2023-03-14T07:59:17;6.07;;;1.23;;
28266;SDS011;15525;45.568;5.448;2023-03-14T08:01:43;3.45;;;1.00;;
28266;SDS011;15525;45.568;5.448;2023-03-14T08:04:09;3.25;;;1.33;;
28266;SDS011;15525;45.568;5.448;2023-03-14T08:06:35;5.50;;;1.25;;
28266;SDS011;15525;45.568;5.448;2023-03-14T08:09:01;4.60;;;1.30;;
28266;SDS011;15525;45.568;5.448;2023-03-14T08:11:27;5.53;;;1.00;;
28266;SDS011;15525;45.568;5.448;2023-03-14T08:13:52;2.13;;;0.98;;
28266;SDS011;15525;45.568;5.448;2023-03-14T08:16:18;5.70;;;1.15;;
28266;SDS011;15525;45.568;5.448;2023-03-14T08:18:44;4.25;;;1.10;;
28266;SDS011;15525;45.568;5.448;2023-03-14T08:21:10;4.57;;;1.15;;
28266;SDS011;15525;45.568;5.448;2023-03-14T08:23:36;4.13;;;1.48;;
28266;SDS011;15525;45.568;5.448;2023-03-14T08:26:02;3.95;;;1.13;;
28266;SDS011;15525;45.568;5.448;2023-03-14T08:28:27;3.50;;;1.15;;
28266;SDS011;15525;45.568;5.448;2023-03-14T08:30:56;4.18;;;1.10;;
28266;SDS011;15525;45.568;5.448;2023-03-14T08:33:22;3.65;;;1.20;;
28266;SDS011;15525;45.568;5.448;2023-03-14T08:35:48;3.38;;;1.10;;
28266;SDS011;15525;45.568;5.448;2023-03-14T08:38:17;3.75;;;1.48;;
28266;SDS011;15525;45.568;5.448;2023-03-14T08:40:42;4.72;;;1.10;;
28266;SDS011;15525;45.568;5.448;2023-03-14T08:43:08;4.07;;;1.10;;
28266;SDS011;15525;45.568;5.448;2023-03-14T08:45:33;4.15;;;1.13;;
28266;SDS011;15525;45.568;5.448;2023-03-14T08:47:59;4.13;;;1.73;;
28266;SDS011;15525;45.568;5.448;2023-03-14T08:50:24;4.20;;;1.23;;
28266;SDS011;15525;45.568;5.448;2023-03-14T08:52:50;2.20;;;1.10;;
28266;SDS011;15525;45.568;5.448;2023-03-14T08:55:15;7.03;;;1.30;;
28266;SDS011;15525;45.568;5.448;2023-03-14T08:57:41;3.40;;;1.35;;
28266;SDS011;15525;45.568;5.448;2023-03-14T09:00:06;4.68;;;1.65;;
28266;SDS011;15525;45.568;5.448;2023-03-14T09:02:39;4.82;;;1.42;;
28266;SDS011;15525;45.568;5.448;2023-03-14T09:05:05;4.43;;;1.40;;
28266;SDS011;15525;45.568;5.448;2023-03-14T09:07:30;5.22;;;1.58;;
28266;SDS011;15525;45.568;5.448;2023-03-14T09:09:56;4.13;;;1.70;;
28266;SDS011;15525;45.568;5.448;2023-03-14T09:12:21;6.75;;;2.38;;
28266;SDS011;15525;45.568;5.448;2023-03-14T09:14:47;7.70;;;1.88;;
28266;SDS011;15525;45.568;5.448;2023-03-14T09:17:12;3.78;;;1.60;;
28266;SDS011;15525;45.568;5.448;2023-03-14T09:19:38;4.40;;;2.03;;
28266;SDS011;15525;45.568;5.448;2023-03-14T09:22:03;5.10;;;2.72;;
28266;SDS011;15525;45.568;5.448;2023-03-14T09:24:29;4.20;;;1.95;;
28266;SDS011;15525;45.568;5.448;2023-03-14T09:26:55;4.10;;;2.30;;
28266;SDS011;15525;45.568;5.448;2023-03-14T09:29:21;6.72;;;2.90;;
28266;SDS011;15525;45.568;5.448;2023-03-14T09:31:47;6.97;;;2.70;;
28266;SDS011;15525;45.568;5.448;2023-03-14T09:34:12;6.60;;;2.90;;
28266;SDS011;15525;45.568;5.448;2023-03-14T09:36:38;6.07;;;2.95;;
28266;SDS011;15525;45.568;5.448;2023-03-14T09:39:04;4.88;;;2.60;;
28266;SDS011;15525;45.568;5.448;2023-03-14T09:41:34;6.72;;;2.30;;
28266;SDS011;15525;45.568;5.448;2023-03-14T09:44:04;5.18;;;2.10;;
28266;SDS011;15525;45.568;5.448;2023-03-14T09:46:34;3.78;;;2.20;;
28266;SDS011;15525;45.568;5.448;2023-03-14T09:49:02;5.00;;;2.22;;
28266;SDS011;15525;45.568;5.448;2023-03-14T09:51:28;6.03;;;2.10;;
28266;SDS011;15525;45.568;5.448;2023-03-14T09:53:54;5.18;;;1.95;;
28266;SDS011;15525;45.568;5.448;2023-03-14T09:56:21;3.88;;;2.00;;
28266;SDS011;15525;45.568;5.448;2023-03-14T09:58:54;3.20;;;1.60;;
28266;SDS011;15525;45.568;5.448;2023-03-14T10:01:33;2.55;;;1.40;;
28266;SDS011;15525;45.568;5.448;2023-03-14T10:04:01;5.82;;;2.42;;
28266;SDS011;15525;45.568;5.448;2023-03-14T10:06:31;4.95;;;2.40;;
28266;SDS011;15525;45.568;5.448;2023-03-14T10:08:57;3.53;;;2.20;;
28266;SDS011;15525;45.568;5.448;2023-03-14T10:11:23;4.82;;;1.60;;
28266;SDS011;15525;45.568;5.448;2023-03-14T10:13:50;4.82;;;1.27;;
28266;SDS011;15525;45.568;5.448;2023-03-14T10:16:32;3.67;;;1.33;;
28266;SDS011;15525;45.568;5.448;2023-03-14T10:19:07;5.47;;;1.40;;
28266;SDS011;15525;45.568;5.448;2023-03-14T10:21:37;6.70;;;1.52;;
28266;SDS011;15525;45.568;5.448;2023-03-14T10:26:48;4.47;;;1.35;;
28266;SDS011;15525;45.568;5.448;2023-03-14T10:29:15;5.97;;;1.42;;
28266;SDS011;15525;45.568;5.448;2023-03-14T10:37:04;2.67;;;0.90;;
28266;SDS011;15525;45.568;5.448;2023-03-14T10:40:01;3.95;;;1.63;;
28266;SDS011;15525;45.568;5.448;2023-03-14T10:42:31;2.78;;;1.00;;
28266;SDS011;15525;45.568;5.448;2023-03-14T10:45:24;2.03;;;1.13;;
28266;SDS011;15525;45.568;5.448;2023-03-14T10:47:58;1.70;;;0.90;;
28266;SDS011;15525;45.568;5.448;2023-03-14T10:50:31;2.45;;;1.00;;
28266;SDS011;15525;45.568;5.448;2023-03-14T10:52:59;2.75;;;0.90;;
28266;SDS011;15525;45.568;5.448;2023-03-14T10:55:39;2.38;;;0.90;;
28266;SDS011;15525;45.568;5.448;2023-03-14T11:09:22;4.00;;;1.38;;
28266;SDS011;15525;45.568;5.448;2023-03-14T11:11:50;3.45;;;1.40;;
28266;SDS011;15525;45.568;5.448;2023-03-14T11:22:28;4.43;;;1.50;;
28266;SDS011;15525;45.568;5.448;2023-03-14T11:30:12;2.45;;;1.15;;
28266;SDS011;15525;45.568;5.448;2023-03-14T11:32:46;3.28;;;1.30;;
28266;SDS011;15525;45.568;5.448;2023-03-14T11:37:55;2.58;;;1.20;;
28266;SDS011;15525;45.568;5.448;2023-03-14T11:40:27;2.60;;;1.20;;
28266;SDS011;15525;45.568;5.448;2023-03-14T11:45:30;6.22;;;1.30;;
28266;SDS011;15525;45.568;5.448;2023-03-14T11:48:17;3.42;;;1.30;;
28266;SDS011;15525;45.568;5.448;2023-03-14T11:50:57;3.17;;;1.30;;
28266;SDS011;15525;45.568;5.448;2023-03-14T11:53:35;3.25;;;1.40;;
28266;SDS011;15525;45.568;5.448;2023-03-14T11:56:15;3.53;;;1.33;;
28266;SDS011;15525;45.568;5.448;2023-03-14T11:59:12;3.42;;;1.60;;
28266;SDS011;15525;45.568;5.448;2023-03-14T12:02:03;3.30;;;1.30;;
28266;SDS011;15525;45.568;5.448;2023-03-14T12:10:29;9.98;;;3.40;;
28266;SDS011;15525;45.568;5.448;2023-03-14T12:12:55;4.45;;;1.20;;
28266;SDS011;15525;45.568;5.448;2023-03-14T12:15:22;4.13;;;1.50;;
28266;SDS011;15525;45.568;5.448;2023-03-14T12:17:53;5.05;;;2.17;;
28266;SDS011;15525;45.568;5.448;2023-03-14T12:20:21;6.82;;;2.67;;
28266;SDS011;15525;45.568;5.448;2023-03-14T12:22:52;5.35;;;1.90;;
28266;SDS011;15525;45.568;5.448;2023-03-14T12:25:22;5.82;;;1.60;;
28266;SDS011;15525;45.568;5.448;2023-03-14T12:30:28;5.13;;;1.50;;
28266;SDS011;15525;45.568;5.448;2023-03-14T12:43:51;2.88;;;1.30;;
28266;SDS011;15525;45.568;5.448;2023-03-14T12:48:46;4.05;;;1.67;;
28266;SDS011;15525;45.568;5.448;2023-03-14T12:51:16;8.13;;;2.22;;
28266;SDS011;15525;45.568;5.448;2023-03-14T12:59:30;1.25;;;1.00;;
28266;SDS011;15525;45.568;5.448;2023-03-14T13:04:29;2.13;;;1.30;;
28266;SDS011;15525;45.568;5.448;2023-03-14T13:06:59;3.13;;;1.20;;
28266;SDS011;15525;45.568;5.448;2023-03-14T13:12:10;3.13;;;1.40;;
28266;SDS011;15525;45.568;5.448;2023-03-14T13:14:43;2.88;;;0.93;;
28266;SDS011;15525;45.568;5.448;2023-03-14T13:17:14;2.83;;;1.47;;
28266;SDS011;15525;45.568;5.448;2023-03-14T13:19:48;5.05;;;1.30;;
28266;SDS011;15525;45.568;5.448;2023-03-14T13:22:21;2.67;;;1.35;;
28266;SDS011;15525;45.568;5.448;2023-03-14T13:24:50;2.17;;;1.08;;
28266;SDS011;15525;45.568;5.448;2023-03-14T13:27:22;2.90;;;1.38;;
28266;SDS011;15525;45.568;5.448;2023-03-14T13:29:49;3.10;;;1.05;;
28266;SDS011;15525;45.568;5.448;2023-03-14T13:32:22;3.03;;;1.20;;
28266;SDS011;15525;45.568;5.448;2023-03-14T13:34:55;2.47;;;0.98;;
28266;SDS011;15525;45.568;5.448;2023-03-14T13:37:22;3.25;;;1.08;;
28266;SDS011;15525;45.568;5.448;2023-03-14T13:39:53;3.88;;;1.55;;
28266;SDS011;15525;45.568;5.448;2023-03-14T13:42:20;3.53;;;1.52;;
28266;SDS011;15525;45.568;5.448;2023-03-14T13:44:49;5.53;;;1.33;;
28266;SDS011;15525;45.568;5.448;2023-03-14T13:47:17;5.07;;;1.45;;
28266;SDS011;15525;45.568;5.448;2023-03-14T13:49:44;2.72;;;1.40;;
28266;SDS011;15525;45.568;5.448;2023-03-14T14:00:16;3.33;;;1.50;;
28266;SDS011;15525;45.568;5.448;2023-03-14T14:02:44;3.80;;;1.77;;
28266;SDS011;15525;45.568;5.448;2023-03-14T14:05:10;4.20;;;1.40;;
28266;SDS011;15525;45.568;5.448;2023-03-14T14:07:37;2.88;;;1.40;;
28266;SDS011;15525;45.568;5.448;2023-03-14T14:10:04;5.47;;;1.60;;
28266;SDS011;15525;45.568;5.448;2023-03-14T14:12:31;5.07;;;1.23;;
28266;SDS011;15525;45.568;5.448;2023-03-14T14:17:36;4.63;;;1.40;;
28266;SDS011;15525;45.568;5.448;2023-03-14T14:20:28;5.68;;;1.23;;
28266;SDS011;15525;45.568;5.448;2023-03-14T14:22:57;3.85;;;1.35;;
28266;SDS011;15525;45.568;5.448;2023-03-14T14:25:23;3.10;;;0.93;;
28266;SDS011;15525;45.568;5.448;2023-03-14T14:27:49;4.00;;;1.38;;
28266;SDS011;15525;45.568;5.448;2023-03-14T14:32:44;4.80;;;1.85;;
28266;SDS011;15525;45.568;5.448;2023-03-14T14:37:58;5.43;;;1.50;;
28266;SDS011;15525;45.568;5.448;2023-03-14T14:40:25;5.20;;;1.50;;
28266;SDS011;15525;45.568;5.448;2023-03-14T14:42:52;2.97;;;1.60;;
28266;SDS011;15525;45.568;5.448;2023-03-14T14:45:20;4.47;;;1.30;;
28266;SDS011;15525;45.568;5.448;2023-03-14T14:47:51;5.07;;;1.80;;
28266;SDS011;15525;45.568;5.448;2023-03-14T14:50:31;3.63;;;1.40;;
28266;SDS011;15525;45.568;5.448;2023-03-14T14:55:56;7.35;;;1.55;;
28266;SDS011;15525;45.568;5.448;2023-03-14T14:58:28;4.47;;;1.63;;
28266;SDS011;15525;45.568;5.448;2023-03-14T15:03:38;2.95;;;1.40;;
28266;SDS011;15525;45.568;5.448;2023-03-14T15:06:07;2.97;;;1.50;;
28266;SDS011;15525;45.568;5.448;2023-03-14T15:08:35;5.78;;;1.80;;
28266;SDS011;15525;45.568;5.448;2023-03-14T15:11:02;5.68;;;1.50;;
28266;SDS011;15525;45.568;5.448;2023-03-14T15:13:28;3.55;;;1.30;;
28266;SDS011;15525;45.568;5.448;2023-03-14T15:15:53;4.93;;;1.23;;
28266;SDS011;15525;45.568;5.448;2023-03-14T15:18:20;6.90;;;1.77;;
28266;SDS011;15525;45.568;5.448;2023-03-14T15:20:48;3.83;;;1.73;;
28266;SDS011;15525;45.568;5.448;2023-03-14T15:23:15;5.10;;;1.70;;
28266;SDS011;15525;45.568;5.448;2023-03-14T15:25:42;4.65;;;1.40;;
28266;SDS011;15525;45.568;5.448;2023-03-14T15:28:11;4.95;;;1.65;;
28266;SDS011;15525;45.568;5.448;2023-03-14T15:30:50;5.88;;;2.15;;
28266;SDS011;15525;45.568;5.448;2023-03-14T15:33:17;6.25;;;1.88;;
28266;SDS011;15525;45.568;5.448;2023-03-14T15:35:43;5.20;;;1.40;;
28266;SDS011;15525;45.568;5.448;2023-03-14T15:38:09;4.78;;;1.38;;
28266;SDS011;15525;45.568;5.448;2023-03-14T15:40:39;4.80;;;1.73;;
28266;SDS011;15525;45.568;5.448;2023-03-14T15:43:05;5.18;;;1.73;;
28266;SDS011;15525;45.568;5.448;2023-03-14T15:45:31;3.88;;;1.65;;
28266;SDS011;15525;45.568;5.448;2023-03-14T15:47:56;3.83;;;1.60;;
28266;SDS011;15525;45.568;5.448;2023-03-14T15:50:22;3.78;;;1.40;;
28266;SDS011;15525;45.568;5.448;2023-03-14T15:52:48;5.05;;;1.42;;
28266;SDS011;15525;45.568;5.448;2023-03-14T15:55:13;3.72;;;1.55;;
28266;SDS011;15525;45.568;5.448;2023-03-14T15:57:40;9.05;;;2.28;;
28266;SDS011;15525;45.568;5.448;2023-03-14T16:00:08;3.70;;;1.52;;
28266;SDS011;15525;45.568;5.448;2023-03-14T16:02:39;5.38;;;1.55;;
28266;SDS011;15525;45.568;5.448;2023-03-14T16:05:06;3.78;;;1.20;;
28266;SDS011;15525;45.568;5.448;2023-03-14T16:07:33;5.18;;;1.90;;
28266;SDS011;15525;45.568;5.448;2023-03-14T16:09:58;6.68;;;2.25;;
28266;SDS011;15525;45.568;5.448;2023-03-14T16:12:24;6.28;;;1.75;;
28266;SDS011;15525;45.568;5.448;2023-03-14T16:14:49;8.35;;;2.53;;
28266;SDS011;15525;45.568;5.448;2023-03-14T16:17:15;3.47;;;1.80;;
28266;SDS011;15525;45.568;5.448;2023-03-14T16:19:40;7.32;;;1.80;;
28266;SDS011;15525;45.568;5.448;2023-03-14T16:22:05;3.97;;;1.60;;
28266;SDS011;15525;45.568;5.448;2023-03-14T16:24:31;3.88;;;1.50;;
28266;SDS011;15525;45.568;5.448;2023-03-14T16:26:56;4.10;;;1.58;;
28266;SDS011;15525;45.568;5.448;2023-03-14T16:29:22;3.92;;;1.60;;
28266;SDS011;15525;45.568;5.448;2023-03-14T16:31:47;3.35;;;1.67;;
28266;SDS011;15525;45.568;5.448;2023-03-14T16:34:12;2.42;;;1.30;;